createdAt,value
2018-03-24T00:00:58.927Z,10.45
2018-03-24T00:03:27.279Z,10.44
2018-03-24T00:05:55.622Z,10.40
2018-03-24T00:08:23.992Z,10.37
2018-03-24T00:10:52.310Z,10.36
2018-03-24T00:13:20.679Z,10.36
2018-03-24T00:15:49.002Z,10.31
2018-03-24T00:18:17.357Z,10.32
2018-03-24T00:20:45.697Z,10.31
2018-03-24T00:23:14.045Z,10.30
2018-03-24T00:25:42.378Z,10.26
2018-03-24T00:28:10.742Z,10.25
2018-03-24T00:30:39.082Z,10.22
2018-03-24T00:33:07.418Z,10.20
2018-03-24T00:35:35.774Z,10.16
2018-03-24T00:38:04.114Z,10.16
2018-03-24T00:40:32.458Z,10.14
2018-03-24T00:43:00.790Z,10.12
2018-03-24T00:45:29.142Z,10.10
2018-03-24T00:47:57.474Z,10.06
2018-03-24T00:50:25.822Z,9.97
2018-03-24T00:52:54.150Z,9.93
2018-03-24T00:55:22.515Z,9.94
2018-03-24T00:57:50.838Z,9.94
2018-03-24T01:00:19.162Z,9.88
2018-03-24T01:02:47.510Z,9.90
2018-03-24T01:05:15.834Z,9.88
2018-03-24T01:07:44.173Z,9.88
2018-03-24T01:10:12.498Z,9.89
2018-03-24T01:12:40.846Z,9.92
2018-03-24T01:15:09.175Z,9.92
2018-03-24T01:17:37.530Z,9.92
2018-03-24T01:20:05.859Z,9.91
2018-03-24T01:22:34.214Z,9.91
2018-03-24T01:25:02.550Z,9.91
2018-03-24T01:27:30.898Z,9.89
2018-03-24T01:29:59.221Z,9.86
2018-03-24T01:32:27.578Z,9.83
2018-03-24T01:34:55.906Z,9.78
2018-03-24T01:37:24.266Z,9.61
2018-03-24T01:39:52.594Z,9.59
2018-03-24T01:42:20.919Z,9.63
2018-03-24T01:44:49.271Z,9.58
2018-03-24T01:47:17.585Z,9.55
2018-03-24T01:49:45.933Z,9.52
2018-03-24T01:52:14.259Z,9.43
2018-03-24T01:54:42.609Z,9.29
2018-03-24T01:57:10.938Z,9.24
2018-03-24T01:59:39.290Z,9.31
2018-03-24T02:02:07.614Z,9.39
2018-03-24T02:04:35.962Z,9.33
2018-03-24T02:07:04.285Z,9.41
2018-03-24T02:09:32.639Z,9.42
2018-03-24T02:12:00.957Z,9.29
2018-03-24T02:14:29.307Z,9.31
2018-03-24T02:16:57.634Z,9.22
2018-03-24T02:19:25.977Z,9.23
2018-03-24T02:21:54.309Z,9.32
2018-03-24T02:24:22.708Z,9.39
2018-03-24T02:26:51.088Z,9.45
2018-03-24T02:29:19.501Z,9.43
2018-03-24T02:31:47.814Z,9.37
2018-03-24T02:34:16.187Z,9.37
2018-03-24T02:36:44.553Z,9.42
2018-03-24T02:39:12.881Z,9.45
2018-03-24T02:41:41.348Z,9.42
2018-03-24T02:44:09.662Z,9.34
2018-03-24T02:46:38.177Z,9.22
2018-03-24T02:49:06.562Z,9.11
2018-03-24T02:51:34.923Z,9.09
2018-03-24T02:54:03.272Z,9.07
2018-03-24T02:56:31.670Z,9.08
2018-03-24T02:59:00.034Z,9.09
2018-03-24T03:01:28.550Z,9.02
2018-03-24T03:03:56.992Z,9.08
2018-03-24T03:06:25.372Z,9.07
2018-03-24T03:08:53.751Z,8.99
2018-03-24T03:11:22.086Z,9.02
2018-03-24T03:13:50.458Z,9.05
2018-03-24T03:16:18.807Z,9.09
2018-03-24T03:18:47.185Z,9.15
2018-03-24T03:21:15.534Z,9.18
2018-03-24T03:23:43.910Z,9.16
2018-03-24T03:26:12.275Z,9.19
2018-03-24T03:28:40.637Z,9.15
2018-03-24T03:31:24.693Z,9.07
2018-03-24T03:33:53.077Z,8.92
2018-03-24T03:36:21.418Z,8.94
2018-03-24T03:38:49.786Z,8.94
2018-03-24T03:41:18.155Z,8.90
2018-03-24T03:43:46.536Z,8.95
2018-03-24T03:46:14.910Z,8.98
2018-03-24T03:48:43.275Z,9.02
2018-03-24T03:51:11.598Z,8.99
2018-03-24T03:53:39.962Z,9.02
2018-03-24T03:56:08.284Z,9.04
2018-03-24T03:58:36.626Z,9.04
2018-03-24T04:01:04.942Z,9.02
2018-03-24T04:03:33.286Z,9.03
2018-03-24T04:06:01.610Z,9.05
2018-03-24T04:08:29.966Z,9.03
2018-03-24T04:10:58.291Z,9.00
2018-03-24T04:13:26.611Z,8.95
2018-03-24T04:15:54.959Z,8.98
2018-03-24T04:18:23.278Z,9.02
2018-03-24T04:20:51.614Z,8.96
2018-03-24T04:23:19.938Z,8.94
2018-03-24T04:25:48.278Z,8.84
2018-03-24T04:28:16.594Z,8.81
2018-03-24T04:30:44.929Z,8.75
2018-03-24T04:33:13.254Z,8.76
2018-03-24T04:35:41.599Z,8.74
2018-03-24T04:38:09.919Z,8.72
2018-03-24T04:40:38.256Z,8.71
2018-03-24T04:43:06.578Z,8.66
2018-03-24T04:45:34.938Z,8.55
2018-03-24T04:48:03.259Z,8.47
2018-03-24T04:50:31.582Z,8.51
2018-03-24T04:52:59.930Z,8.48
2018-03-24T04:55:28.254Z,8.51
2018-03-24T04:57:56.607Z,8.55
2018-03-24T05:00:24.929Z,8.61
2018-03-24T05:02:53.270Z,8.65
2018-03-24T05:05:21.599Z,8.67
2018-03-24T05:07:49.943Z,8.71
2018-03-24T05:10:18.264Z,8.71
2018-03-24T05:12:46.606Z,8.71
2018-03-24T05:15:14.922Z,8.62
2018-03-24T05:17:43.266Z,8.61
2018-03-24T05:20:11.586Z,8.55
2018-03-24T05:22:39.934Z,8.43
2018-03-24T05:25:08.262Z,8.33
2018-03-24T05:27:36.590Z,8.47
2018-03-24T05:30:04.974Z,8.50
2018-03-24T05:32:33.273Z,8.47
2018-03-24T05:35:01.625Z,8.46
2018-03-24T05:37:29.942Z,8.43
2018-03-24T05:39:58.314Z,8.41
2018-03-24T05:42:26.639Z,8.43
2018-03-24T05:44:54.982Z,8.44
2018-03-24T05:47:23.309Z,8.43
2018-03-24T05:49:51.653Z,8.43
2018-03-24T05:52:19.970Z,8.41
2018-03-24T05:54:48.313Z,8.41
2018-03-24T05:57:16.634Z,8.45
2018-03-24T05:59:44.991Z,8.41
2018-03-24T06:02:13.305Z,8.43
2018-03-24T06:04:41.626Z,8.46
2018-03-24T06:07:09.966Z,8.45
2018-03-24T06:09:38.286Z,8.51
2018-03-24T06:12:06.626Z,8.59
2018-03-24T06:14:34.950Z,8.62
2018-03-24T06:17:03.294Z,8.66
2018-03-24T06:19:31.610Z,8.73
2018-03-24T06:21:59.977Z,8.80
2018-03-24T06:24:28.302Z,8.79
2018-03-24T06:26:56.644Z,8.88
2018-03-24T06:29:24.971Z,8.98
2018-03-24T06:31:58.870Z,8.92
2018-03-24T06:34:27.194Z,8.96
2018-03-24T06:36:59.945Z,8.90
2018-03-24T06:39:28.262Z,8.87
2018-03-24T06:41:56.581Z,8.84
2018-03-24T06:44:24.917Z,8.79
2018-03-24T06:46:53.238Z,8.93
2018-03-24T06:49:21.582Z,9.04
2018-03-24T06:51:49.901Z,9.10
2018-03-24T06:54:18.250Z,9.12
2018-03-24T06:56:46.578Z,9.12
2018-03-24T06:59:14.926Z,9.17
2018-03-24T07:01:43.245Z,9.22
2018-03-24T07:04:11.591Z,9.29
2018-03-24T07:06:41.054Z,9.30
2018-03-24T07:09:09.774Z,9.34
2018-03-24T07:11:38.320Z,9.34
2018-03-24T07:14:07.676Z,9.36
2018-03-24T07:16:36.421Z,9.39
2018-03-24T07:19:05.640Z,9.31
2018-03-24T07:21:34.353Z,9.38
2018-03-24T07:24:03.149Z,9.25
2018-03-24T07:26:31.934Z,9.29
2018-03-24T07:29:00.902Z,9.41
2018-03-24T07:31:29.732Z,9.46
2018-03-24T07:34:01.310Z,9.53
2018-03-24T07:36:31.962Z,9.57
2018-03-24T07:39:00.995Z,9.60
2018-03-24T07:41:30.174Z,9.69
2018-03-24T07:44:02.049Z,9.85
2018-03-24T07:46:30.894Z,9.88
2018-03-24T07:49:00.134Z,9.90
2018-03-24T07:51:29.784Z,9.97
2018-03-24T07:54:00.021Z,10.11
2018-03-24T07:56:29.777Z,10.16
2018-03-24T07:58:58.503Z,10.20
2018-03-24T08:01:27.098Z,10.18
2018-03-24T08:03:55.526Z,10.23
2018-03-24T08:06:24.175Z,10.32
2018-03-24T08:08:52.786Z,10.35
2018-03-24T08:11:21.313Z,10.41
2018-03-24T08:13:49.834Z,10.50
2018-03-24T08:16:18.262Z,10.46
2018-03-24T08:18:46.695Z,10.51
2018-03-24T08:21:15.182Z,10.62
2018-03-24T08:23:43.713Z,10.73
2018-03-24T08:26:13.162Z,10.83
2018-03-24T08:28:41.727Z,10.71
2018-03-24T08:31:10.168Z,10.83
2018-03-24T08:33:39.219Z,11.00
2018-03-24T08:36:07.665Z,11.15
2018-03-24T08:38:36.940Z,11.21
2018-03-24T08:41:05.376Z,11.17
2018-03-24T08:43:33.746Z,11.31
2018-03-24T08:46:02.075Z,11.33
2018-03-24T08:48:30.441Z,11.37
2018-03-24T08:50:58.774Z,11.46
2018-03-24T08:53:27.099Z,11.51
2018-03-24T08:55:55.454Z,11.51
2018-03-24T08:58:23.782Z,11.46
2018-03-24T09:00:52.130Z,11.52
2018-03-24T09:03:20.464Z,11.41
2018-03-24T09:05:48.812Z,11.35
2018-03-24T09:08:17.142Z,11.25
2018-03-24T09:10:45.545Z,11.36
2018-03-24T09:13:13.917Z,11.52
2018-03-24T09:15:42.270Z,11.59
2018-03-24T09:18:10.589Z,11.66
2018-03-24T09:20:38.941Z,11.72
2018-03-24T09:23:07.277Z,11.77
2018-03-24T09:25:35.777Z,11.82
2018-03-24T09:28:04.137Z,11.81
2018-03-24T09:30:32.454Z,11.83
2018-03-24T09:33:00.787Z,11.79
2018-03-24T09:35:30.226Z,11.84
2018-03-24T09:37:58.602Z,11.88
2018-03-24T09:40:26.954Z,11.94
2018-03-24T09:42:55.281Z,11.93
2018-03-24T09:45:23.634Z,11.98
2018-03-24T09:47:51.967Z,12.01
2018-03-24T09:50:20.318Z,12.09
2018-03-24T09:52:48.685Z,12.31
2018-03-24T09:55:16.999Z,12.45
2018-03-24T09:57:45.331Z,12.49
2018-03-24T10:00:13.679Z,12.48
2018-03-24T10:02:42.007Z,12.54
2018-03-24T10:05:10.358Z,12.53
2018-03-24T10:07:38.685Z,12.51
2018-03-24T10:10:07.041Z,12.50
2018-03-24T10:12:35.376Z,12.46
2018-03-24T10:15:03.718Z,12.62
2018-03-24T10:17:32.050Z,12.77
2018-03-24T10:20:00.409Z,12.81
2018-03-24T10:25:28.792Z,12.67
2018-03-24T10:27:57.206Z,12.81
2018-03-24T10:30:25.565Z,12.84
2018-03-24T10:32:53.894Z,12.76
2018-03-24T10:35:22.304Z,12.84
2018-03-24T10:37:56.318Z,12.83
2018-03-24T10:40:24.662Z,12.85
2018-03-24T10:42:58.551Z,12.79
2018-03-24T10:45:26.897Z,12.71
2018-03-24T10:47:55.304Z,12.66
2018-03-24T10:50:23.655Z,12.63
2018-03-24T10:52:51.977Z,12.62
2018-03-24T10:55:20.329Z,12.70
2018-03-24T10:57:49.317Z,12.78
2018-03-24T11:00:17.680Z,12.92
2018-03-24T11:02:46.037Z,13.01
2018-03-24T11:05:14.345Z,13.06
2018-03-24T11:07:42.674Z,13.14
2018-03-24T11:10:11.026Z,13.21
2018-03-24T11:12:39.446Z,13.27
2018-03-24T11:15:07.790Z,13.37
2018-03-24T11:17:36.970Z,13.30
2018-03-24T11:20:05.297Z,13.27
2018-03-24T11:22:33.663Z,13.11
2018-03-24T11:25:01.998Z,13.09
2018-03-24T11:27:30.346Z,13.00
2018-03-24T11:29:58.670Z,12.94
2018-03-24T11:32:27.023Z,13.05
2018-03-24T11:34:55.353Z,13.09
2018-03-24T11:37:23.693Z,13.23
2018-03-24T11:39:52.023Z,13.18
2018-03-24T11:42:20.378Z,13.20
2018-03-24T11:44:48.701Z,13.28
2018-03-24T11:47:17.054Z,13.33
2018-03-24T11:49:45.382Z,13.40
2018-03-24T11:52:13.733Z,13.44
2018-03-24T11:54:44.538Z,13.35
2018-03-24T11:57:13.437Z,13.27
2018-03-24T11:59:41.762Z,13.24
2018-03-24T12:02:10.112Z,13.46
2018-03-24T12:04:38.440Z,13.59
2018-03-24T12:07:06.794Z,13.71
2018-03-24T12:09:35.126Z,13.90
2018-03-24T12:12:03.478Z,13.92
2018-03-24T12:14:31.807Z,13.96
2018-03-24T12:17:00.378Z,13.97
2018-03-24T12:19:28.703Z,13.90
2018-03-24T12:21:57.050Z,13.86
2018-03-24T12:24:25.399Z,13.77
2018-03-24T12:26:53.733Z,13.80
2018-03-24T12:29:22.074Z,13.83
2018-03-24T12:31:50.426Z,13.93
2018-03-24T12:34:18.754Z,13.95
2018-03-24T12:36:48.908Z,13.95
2018-03-24T12:39:17.233Z,13.96
2018-03-24T12:41:45.593Z,14.04
2018-03-24T12:44:13.938Z,14.06
2018-03-24T12:46:42.287Z,14.05
2018-03-24T12:49:10.618Z,13.99
2018-03-24T12:51:38.973Z,13.90
2018-03-24T12:54:07.310Z,13.82
2018-03-24T12:56:35.658Z,13.82
2018-03-24T12:59:03.989Z,13.80
2018-03-24T13:01:32.338Z,13.74
2018-03-24T13:04:01.777Z,13.64
2018-03-24T13:06:30.155Z,13.58
2018-03-24T13:08:58.621Z,13.63
2018-03-24T13:11:26.971Z,13.67
2018-03-24T13:13:55.311Z,13.68
2018-03-24T13:16:24.621Z,13.72
2018-03-24T13:18:52.958Z,13.65
2018-03-24T13:21:21.325Z,13.68
2018-03-24T13:23:49.658Z,13.72
2018-03-24T13:26:18.938Z,13.76
2018-03-24T13:28:47.285Z,13.70
2018-03-24T13:31:15.618Z,13.62
2018-03-24T13:33:43.971Z,13.58
2018-03-24T13:36:12.302Z,13.57
2018-03-24T13:38:40.650Z,13.63
2018-03-24T13:41:08.983Z,13.69
2018-03-24T13:43:37.329Z,13.65
2018-03-24T13:46:05.691Z,13.80
2018-03-24T13:48:34.038Z,13.97
2018-03-24T13:51:02.371Z,14.17
2018-03-24T13:53:30.714Z,14.25
2018-03-24T13:55:59.042Z,14.32
2018-03-24T13:58:27.395Z,14.38
2018-03-24T14:00:55.722Z,14.42
2018-03-24T14:03:24.072Z,14.48
2018-03-24T14:05:52.494Z,14.52
2018-03-24T14:08:20.846Z,14.57
2018-03-24T14:10:49.169Z,14.56
2018-03-24T14:13:17.523Z,14.60
2018-03-24T14:15:46.149Z,14.57
2018-03-24T14:18:14.524Z,14.62
2018-03-24T14:20:42.846Z,14.66
2018-03-24T14:23:11.202Z,14.55
2018-03-24T14:25:39.530Z,14.51
2018-03-24T14:28:07.906Z,14.41
2018-03-24T14:30:36.309Z,14.42
2018-03-24T14:33:04.650Z,14.32
2018-03-24T14:35:32.977Z,14.32
2018-03-24T14:38:01.333Z,14.35
2018-03-24T14:40:29.658Z,14.46
2018-03-24T14:42:58.014Z,14.48
2018-03-24T14:45:26.338Z,14.56
2018-03-24T14:47:54.682Z,14.60
2018-03-24T14:50:23.031Z,14.59
2018-03-24T14:52:51.370Z,14.45
2018-03-24T14:55:19.729Z,14.31
2018-03-24T14:57:48.065Z,14.39
2018-03-24T15:00:16.408Z,14.45
2018-03-24T15:02:44.750Z,14.43
2018-03-24T15:05:13.079Z,14.39
2018-03-24T15:07:41.430Z,14.41
2018-03-24T15:10:09.759Z,14.42
2018-03-24T15:12:38.119Z,14.42
2018-03-24T15:15:06.442Z,14.37
2018-03-24T15:17:34.790Z,14.23
2018-03-24T15:20:03.120Z,14.18
2018-03-24T15:22:31.486Z,14.16
2018-03-24T15:24:59.813Z,14.18
2018-03-24T15:27:28.143Z,14.21
2018-03-24T15:30:08.295Z,13.98
2018-03-24T15:32:43.414Z,13.92
2018-03-24T15:35:23.427Z,13.78
2018-03-24T15:37:52.810Z,13.66
2018-03-24T15:40:21.162Z,13.63
2018-03-24T15:42:49.525Z,13.63
2018-03-24T15:45:17.862Z,13.61
2018-03-24T15:47:46.210Z,13.63
2018-03-24T15:50:14.546Z,13.63
2018-03-24T15:52:42.874Z,13.57
2018-03-24T15:55:11.218Z,13.61
2018-03-24T15:57:39.563Z,13.57
2018-03-24T16:00:08.030Z,13.46
2018-03-24T16:02:36.352Z,13.46
2018-03-24T16:05:04.709Z,13.42
2018-03-24T16:07:33.056Z,13.45
2018-03-24T16:10:01.418Z,13.43
2018-03-24T16:12:29.742Z,13.40
2018-03-24T16:14:58.117Z,13.29
2018-03-24T16:17:26.489Z,13.31
2018-03-24T16:19:54.842Z,13.19
2018-03-24T16:22:23.171Z,13.19
2018-03-24T16:24:51.518Z,13.18
2018-03-24T16:27:19.842Z,13.16
2018-03-24T16:29:48.291Z,13.17
2018-03-24T16:32:16.616Z,13.16
2018-03-24T16:34:44.966Z,13.22
2018-03-24T16:37:13.302Z,13.69
2018-03-24T16:39:41.659Z,13.67
2018-03-24T16:42:09.982Z,13.58
2018-03-24T16:44:38.338Z,13.50
2018-03-24T16:47:06.683Z,13.38
2018-03-24T16:49:35.037Z,13.35
2018-03-24T16:52:03.367Z,13.32
2018-03-24T16:54:31.727Z,13.37
2018-03-24T16:57:00.054Z,13.38
2018-03-24T16:59:28.414Z,13.34
2018-03-24T17:01:56.731Z,13.35
2018-03-24T17:04:25.082Z,13.30
2018-03-24T17:06:54.958Z,13.26
2018-03-24T17:09:23.309Z,13.24
2018-03-24T17:11:51.647Z,13.21
2018-03-24T17:14:19.994Z,13.17
2018-03-24T17:16:48.321Z,13.17
2018-03-24T17:19:16.673Z,13.19
2018-03-24T17:21:45.006Z,13.17
2018-03-24T17:24:13.370Z,13.17
2018-03-24T17:26:42.014Z,13.15
2018-03-24T17:29:10.371Z,13.09
2018-03-24T17:31:38.694Z,12.93
2018-03-24T17:34:07.055Z,12.77
2018-03-24T17:36:35.393Z,12.78
2018-03-24T17:39:03.742Z,12.72
2018-03-24T17:41:32.145Z,12.68
2018-03-24T17:44:00.496Z,12.66
2018-03-24T17:46:29.774Z,12.56
2018-03-24T17:48:58.127Z,12.44
2018-03-24T17:51:26.467Z,12.36
2018-03-24T17:53:54.807Z,12.36
2018-03-24T17:56:24.055Z,12.37
2018-03-24T17:58:52.382Z,12.33
2018-03-24T18:01:20.734Z,12.41
2018-03-24T18:03:49.061Z,12.41
2018-03-24T18:06:17.418Z,12.32
2018-03-24T18:08:45.755Z,12.31
2018-03-24T18:11:14.106Z,12.33
2018-03-24T18:13:42.442Z,12.33
2018-03-24T18:16:11.720Z,12.29
2018-03-24T18:18:40.064Z,12.26
2018-03-24T18:21:08.403Z,12.18
2018-03-24T18:23:36.740Z,12.20
2018-03-24T18:26:05.091Z,12.17
2018-03-24T18:28:33.418Z,12.14
2018-03-24T18:31:01.770Z,12.10
2018-03-24T18:33:30.114Z,12.10
2018-03-24T18:35:58.458Z,12.13
2018-03-24T18:38:26.785Z,12.11
2018-03-24T18:40:55.143Z,12.09
2018-03-24T18:43:23.478Z,11.99
2018-03-24T18:45:51.833Z,11.80
2018-03-24T18:48:20.163Z,11.68
2018-03-24T18:50:48.513Z,11.75
2018-03-24T18:53:16.851Z,11.74
2018-03-24T18:55:45.204Z,11.65
2018-03-24T18:58:13.534Z,11.53
2018-03-24T19:00:41.927Z,11.46
2018-03-24T19:03:10.255Z,11.41
2018-03-24T19:05:39.593Z,11.44
2018-03-24T19:08:07.912Z,11.46
2018-03-24T19:10:36.266Z,11.38
2018-03-24T19:13:04.595Z,11.29
2018-03-24T19:15:35.654Z,11.22
2018-03-24T19:18:03.986Z,11.17
2018-03-24T19:20:32.338Z,11.08
2018-03-24T19:23:00.682Z,10.98
2018-03-24T19:25:29.038Z,10.99
2018-03-24T19:27:57.366Z,10.92
2018-03-24T19:30:25.722Z,10.72
2018-03-24T19:32:54.059Z,10.60
2018-03-24T19:35:22.412Z,10.47
2018-03-24T19:37:50.743Z,10.38
2018-03-24T19:40:19.095Z,10.40
2018-03-24T19:42:47.418Z,10.41
2018-03-24T19:45:15.772Z,10.42
2018-03-24T19:47:44.110Z,10.45
2018-03-24T19:50:12.463Z,10.48
2018-03-24T19:52:40.794Z,10.57
2018-03-24T19:55:09.159Z,10.59
2018-03-24T19:57:37.483Z,10.59
2018-03-24T20:00:05.816Z,10.54
2018-03-24T20:02:34.219Z,10.52
2018-03-24T20:05:02.534Z,10.46
2018-03-24T20:07:30.881Z,10.42
2018-03-24T20:09:59.218Z,10.44
2018-03-24T20:12:27.578Z,10.44
2018-03-24T20:14:56.066Z,10.43
2018-03-24T20:17:24.465Z,10.39
2018-03-24T20:19:52.818Z,10.29
2018-03-24T20:22:21.163Z,10.22
2018-03-24T20:24:49.490Z,10.00
2018-03-24T20:27:17.837Z,9.95
2018-03-24T20:29:46.186Z,9.84
2018-03-24T20:32:14.537Z,9.75
2018-03-24T20:34:42.853Z,9.77
2018-03-24T20:37:11.198Z,9.85
2018-03-24T20:39:39.522Z,9.68
2018-03-24T20:42:07.866Z,9.59
2018-03-24T20:44:36.187Z,9.47
2018-03-24T20:47:04.531Z,9.45
2018-03-24T20:49:32.854Z,9.29
2018-03-24T20:52:01.194Z,9.27
2018-03-24T20:54:29.515Z,9.25
2018-03-24T20:56:57.855Z,9.14
2018-03-24T20:59:26.177Z,8.98
2018-03-24T21:01:54.598Z,8.99
2018-03-24T21:04:22.912Z,8.97
2018-03-24T21:06:51.253Z,9.03
2018-03-24T21:09:19.577Z,9.02
2018-03-24T21:11:47.951Z,8.96
2018-03-24T21:14:16.270Z,8.90
2018-03-24T21:16:44.614Z,8.90
2018-03-24T21:19:12.934Z,8.96
2018-03-24T21:21:42.337Z,8.89
2018-03-24T21:24:10.650Z,8.87
2018-03-24T21:26:38.990Z,8.87
2018-03-24T21:29:07.309Z,8.79
2018-03-24T21:31:35.654Z,8.71
2018-03-24T21:34:03.998Z,8.74
2018-03-24T21:36:32.346Z,8.75
2018-03-24T21:39:00.665Z,8.83
2018-03-24T21:41:37.694Z,9.05
2018-03-24T21:44:08.282Z,8.93
2018-03-24T21:46:36.626Z,8.75
2018-03-24T21:49:04.950Z,8.60
2018-03-24T21:51:33.319Z,8.53
2018-03-24T21:54:01.633Z,8.46
2018-03-24T21:56:30.938Z,8.44
2018-03-24T21:58:59.258Z,8.34
2018-03-24T22:01:27.750Z,8.37
2018-03-24T22:03:56.075Z,8.18
2018-03-24T22:06:25.370Z,8.19
2018-03-24T22:08:53.690Z,8.27
2018-03-24T22:11:22.030Z,8.25
2018-03-24T22:13:50.353Z,8.26
2018-03-24T22:16:18.673Z,8.24
2018-03-24T22:18:47.014Z,8.26
2018-03-24T22:21:15.437Z,8.27
2018-03-24T22:23:43.730Z,8.30
2018-03-24T22:26:12.053Z,8.31
2018-03-24T22:28:40.398Z,8.25
2018-03-24T22:31:08.725Z,8.27
2018-03-24T22:33:37.070Z,8.18
2018-03-24T22:36:05.441Z,8.13
2018-03-24T22:38:33.799Z,8.07
2018-03-24T22:41:02.122Z,8.05
2018-03-24T22:43:30.466Z,8.07
2018-03-24T22:45:58.786Z,7.99
2018-03-24T22:48:27.147Z,7.99
2018-03-24T22:50:55.473Z,7.96
2018-03-24T22:53:23.822Z,7.88
2018-03-24T22:55:52.233Z,7.64
2018-03-24T22:58:20.607Z,7.73
2018-03-24T23:00:48.927Z,7.80
2018-03-24T23:03:17.269Z,7.75
2018-03-24T23:05:45.598Z,7.68
2018-03-24T23:08:13.942Z,7.60
2018-03-24T23:10:42.270Z,7.62
2018-03-24T23:13:10.609Z,7.62
2018-03-24T23:15:38.941Z,7.69
2018-03-24T23:18:07.278Z,7.62
2018-03-24T23:20:35.598Z,7.50
2018-03-24T23:23:03.949Z,7.42
2018-03-24T23:25:32.266Z,7.27
2018-03-24T23:28:00.606Z,7.27
2018-03-24T23:30:28.929Z,7.25
2018-03-24T23:32:57.270Z,7.23
2018-03-24T23:35:25.590Z,7.20
2018-03-24T23:37:53.938Z,7.10
2018-03-24T23:40:22.829Z,7.11
2018-03-24T23:42:51.169Z,7.12
2018-03-24T23:45:19.681Z,7.01
2018-03-24T23:47:48.506Z,7.09
2018-03-24T23:50:16.874Z,7.14
2018-03-24T23:52:45.377Z,7.13
2018-03-24T23:55:13.721Z,7.06
2018-03-24T23:57:42.522Z,7.07
